sensor_id;sensor_type;location;lat;lon;timestamp;pressure;altitude;pressure_sealevel;temperature;humidity
35952;BME280;22035;51.406;16.194;2023-05-09T00:00:28;101060.99;;;30.68;18.11
35952;BME280;22035;51.406;16.194;2023-05-09T00:02:54;101060.61;;;30.68;18.13
35952;BME280;22035;51.406;16.194;2023-05-09T00:05:20;101059.65;;;30.76;18.06
35952;BME280;22035;51.406;16.194;2023-05-09T00:07:46;101054.36;;;30.65;18.04
35952;BME280;22035;51.406;16.194;2023-05-09T00:10:11;101055.75;;;30.72;18.04
35952;BME280;22035;51.406;16.194;2023-05-09T00:12:37;101056.57;;;30.73;18.06
35952;BME280;22035;51.406;16.194;2023-05-09T00:15:03;101052.33;;;30.69;18.07
35952;BME280;22035;51.406;16.194;2023-05-09T00:17:30;101052.49;;;30.71;18.08
35952;BME280;22035;51.406;16.194;2023-05-09T00:19:55;101050.59;;;30.70;18.06
35952;BME280;22035;51.406;16.194;2023-05-09T00:22:21;101048.29;;;30.66;18.07
35952;BME280;22035;51.406;16.194;2023-05-09T00:24:47;101048.94;;;30.68;18.04
35952;BME280;22035;51.406;16.194;2023-05-09T00:27:13;101046.17;;;30.65;18.09
35952;BME280;22035;51.406;16.194;2023-05-09T00:29:38;101045.00;;;30.69;18.04
35952;BME280;22035;51.406;16.194;2023-05-09T00:32:04;101042.56;;;30.59;18.14
35952;BME280;22035;51.406;16.194;2023-05-09T00:34:30;101041.10;;;30.64;18.10
35952;BME280;22035;51.406;16.194;2023-05-09T00:36:56;101041.07;;;30.62;18.08
35952;BME280;22035;51.406;16.194;2023-05-09T00:39:21;101034.93;;;30.62;18.13
35952;BME280;22035;51.406;16.194;2023-05-09T00:41:47;101033.54;;;30.68;18.02
35952;BME280;22035;51.406;16.194;2023-05-09T00:44:12;101028.67;;;30.60;18.19
35952;BME280;22035;51.406;16.194;2023-05-09T00:46:38;101027.88;;;30.62;18.07
35952;BME280;22035;51.406;16.194;2023-05-09T00:49:04;101025.30;;;30.60;18.10
35952;BME280;22035;51.406;16.194;2023-05-09T00:51:30;101022.95;;;30.56;18.13
35952;BME280;22035;51.406;16.194;2023-05-09T00:53:56;101027.35;;;30.63;18.08
35952;BME280;22035;51.406;16.194;2023-05-09T00:56:22;101023.75;;;30.58;18.09
35952;BME280;22035;51.406;16.194;2023-05-09T00:58:48;101025.26;;;30.62;18.07
35952;BME280;22035;51.406;16.194;2023-05-09T01:01:14;101023.10;;;30.56;18.12
35952;BME280;22035;51.406;16.194;2023-05-09T01:03:40;101023.21;;;30.59;18.09
35952;BME280;22035;51.406;16.194;2023-05-09T01:06:10;101020.73;;;30.60;18.04
35952;BME280;22035;51.406;16.194;2023-05-09T01:08:43;101023.45;;;30.59;18.06
35952;BME280;22035;51.406;16.194;2023-05-09T01:11:16;101018.66;;;30.55;18.07
35952;BME280;22035;51.406;16.194;2023-05-09T01:13:51;101018.91;;;30.57;18.01
35952;BME280;22035;51.406;16.194;2023-05-09T01:16:24;101015.88;;;30.51;18.15
35952;BME280;22035;51.406;16.194;2023-05-09T01:18:54;101013.47;;;30.51;18.14
35952;BME280;22035;51.406;16.194;2023-05-09T01:21:27;101013.28;;;30.51;18.12
35952;BME280;22035;51.406;16.194;2023-05-09T01:24:06;101010.18;;;30.51;18.13
35952;BME280;22035;51.406;16.194;2023-05-09T01:26:43;101008.92;;;30.52;18.08
35952;BME280;22035;51.406;16.194;2023-05-09T01:29:32;101009.90;;;30.48;18.11
35952;BME280;22035;51.406;16.194;2023-05-09T01:32:00;101011.40;;;30.50;18.10
35952;BME280;22035;51.406;16.194;2023-05-09T01:34:28;101014.00;;;30.46;18.12
35952;BME280;22035;51.406;16.194;2023-05-09T01:36:58;101013.02;;;30.49;18.09
35952;BME280;22035;51.406;16.194;2023-05-09T01:39:26;101010.66;;;30.48;18.11
35952;BME280;22035;51.406;16.194;2023-05-09T01:41:52;101008.93;;;30.47;18.12
35952;BME280;22035;51.406;16.194;2023-05-09T01:44:20;101007.94;;;30.45;18.13
35952;BME280;22035;51.406;16.194;2023-05-09T01:46:48;101009.08;;;30.49;18.07
35952;BME280;22035;51.406;16.194;2023-05-09T01:49:16;101008.09;;;30.43;18.11
35952;BME280;22035;51.406;16.194;2023-05-09T01:51:43;101006.68;;;30.42;18.13
35952;BME280;22035;51.406;16.194;2023-05-09T01:54:10;101005.14;;;30.44;18.10
35952;BME280;22035;51.406;16.194;2023-05-09T01:56:36;101001.74;;;30.44;18.13
35952;BME280;22035;51.406;16.194;2023-05-09T01:59:04;101000.51;;;30.43;18.07
35952;BME280;22035;51.406;16.194;2023-05-09T02:01:31;100999.52;;;30.47;18.05
35952;BME280;22035;51.406;16.194;2023-05-09T02:03:58;100998.63;;;30.44;18.08
35952;BME280;22035;51.406;16.194;2023-05-09T02:06:24;100998.63;;;30.37;18.15
35952;BME280;22035;51.406;16.194;2023-05-09T02:08:50;100998.23;;;30.39;18.13
35952;BME280;22035;51.406;16.194;2023-05-09T02:11:16;100994.86;;;30.36;18.17
35952;BME280;22035;51.406;16.194;2023-05-09T02:13:42;100995.74;;;30.37;18.17
35952;BME280;22035;51.406;16.194;2023-05-09T02:16:08;100994.26;;;30.45;18.05
35952;BME280;22035;51.406;16.194;2023-05-09T02:18:34;100991.61;;;30.45;18.04
35952;BME280;22035;51.406;16.194;2023-05-09T02:20:59;100990.02;;;30.44;18.05
35952;BME280;22035;51.406;16.194;2023-05-09T02:23:25;100989.14;;;30.42;18.04
35952;BME280;22035;51.406;16.194;2023-05-09T02:25:51;100987.21;;;30.42;18.09
35952;BME280;22035;51.406;16.194;2023-05-09T02:28:17;100985.18;;;30.39;18.09
35952;BME280;22035;51.406;16.194;2023-05-09T02:30:44;100982.76;;;30.38;18.09
35952;BME280;22035;51.406;16.194;2023-05-09T02:33:12;100982.95;;;30.39;18.09
35952;BME280;22035;51.406;16.194;2023-05-09T02:35:41;100978.35;;;30.43;17.99
35952;BME280;22035;51.406;16.194;2023-05-09T02:38:08;100975.01;;;30.32;18.09
35952;BME280;22035;51.406;16.194;2023-05-09T02:40:34;100976.76;;;30.38;18.06
35952;BME280;22035;51.406;16.194;2023-05-09T02:43:00;100976.88;;;30.31;18.10
35952;BME280;22035;51.406;16.194;2023-05-09T02:45:26;100973.38;;;30.34;18.07
35952;BME280;22035;51.406;16.194;2023-05-09T02:47:51;100974.03;;;30.40;18.01
35952;BME280;22035;51.406;16.194;2023-05-09T02:50:17;100971.23;;;30.33;18.07
35952;BME280;22035;51.406;16.194;2023-05-09T02:52:43;100969.76;;;30.33;18.08
35952;BME280;22035;51.406;16.194;2023-05-09T02:55:09;100970.83;;;30.41;18.03
35952;BME280;22035;51.406;16.194;2023-05-09T02:57:35;100973.88;;;30.37;18.05
35952;BME280;22035;51.406;16.194;2023-05-09T03:00:00;100976.32;;;30.34;18.07
35952;BME280;22035;51.406;16.194;2023-05-09T03:02:26;100978.09;;;30.36;18.06
35952;BME280;22035;51.406;16.194;2023-05-09T03:04:52;100978.29;;;30.33;18.07
35952;BME280;22035;51.406;16.194;2023-05-09T03:07:17;100972.94;;;30.33;18.06
35952;BME280;22035;51.406;16.194;2023-05-09T03:09:43;100970.01;;;30.34;18.06
35952;BME280;22035;51.406;16.194;2023-05-09T03:12:09;100968.31;;;30.31;18.07
35952;BME280;22035;51.406;16.194;2023-05-09T03:14:34;100966.58;;;30.30;18.07
35952;BME280;22035;51.406;16.194;2023-05-09T03:17:00;100964.25;;;30.33;18.02
35952;BME280;22035;51.406;16.194;2023-05-09T03:19:26;100959.49;;;30.28;18.06
35952;BME280;22035;51.406;16.194;2023-05-09T03:21:51;100958.46;;;30.32;18.00
35952;BME280;22035;51.406;16.194;2023-05-09T03:24:17;100956.27;;;30.24;18.07
35952;BME280;22035;51.406;16.194;2023-05-09T03:26:43;100958.30;;;30.33;18.02
35952;BME280;22035;51.406;16.194;2023-05-09T03:29:08;100956.26;;;30.31;18.02
35952;BME280;22035;51.406;16.194;2023-05-09T03:31:34;100953.88;;;30.31;17.97
35952;BME280;22035;51.406;16.194;2023-05-09T03:34:00;100957.76;;;30.36;17.94
35952;BME280;22035;51.406;16.194;2023-05-09T03:36:26;100959.51;;;30.42;17.85
35952;BME280;22035;51.406;16.194;2023-05-09T03:38:51;100962.91;;;30.36;17.98
35952;BME280;22035;51.406;16.194;2023-05-09T03:41:17;100965.15;;;30.33;18.00
35952;BME280;22035;51.406;16.194;2023-05-09T03:43:43;100968.85;;;30.29;18.04
35952;BME280;22035;51.406;16.194;2023-05-09T03:46:09;100968.78;;;30.31;18.03
35952;BME280;22035;51.406;16.194;2023-05-09T03:48:34;100971.71;;;30.31;18.02
35952;BME280;22035;51.406;16.194;2023-05-09T03:51:00;100971.53;;;30.40;17.93
35952;BME280;22035;51.406;16.194;2023-05-09T03:53:26;100966.90;;;30.39;17.92
35952;BME280;22035;51.406;16.194;2023-05-09T03:55:52;100964.76;;;30.43;17.85
35952;BME280;22035;51.406;16.194;2023-05-09T03:58:17;100963.22;;;30.44;17.88
35952;BME280;22035;51.406;16.194;2023-05-09T04:00:43;100959.51;;;30.48;17.86
35952;BME280;22035;51.406;16.194;2023-05-09T04:03:09;100963.00;;;30.44;17.88
35952;BME280;22035;51.406;16.194;2023-05-09T04:05:34;100960.25;;;30.44;17.87
35952;BME280;22035;51.406;16.194;2023-05-09T04:08:00;100962.78;;;30.50;17.83
35952;BME280;22035;51.406;16.194;2023-05-09T04:10:26;100964.60;;;30.50;17.83
35952;BME280;22035;51.406;16.194;2023-05-09T04:12:52;100959.83;;;30.55;17.80
35952;BME280;22035;51.406;16.194;2023-05-09T04:15:17;100967.00;;;30.44;17.85
35952;BME280;22035;51.406;16.194;2023-05-09T04:17:43;100966.54;;;30.48;17.82
35952;BME280;22035;51.406;16.194;2023-05-09T04:20:10;100964.87;;;30.44;17.83
35952;BME280;22035;51.406;16.194;2023-05-09T04:22:36;100964.51;;;30.43;17.82
35952;BME280;22035;51.406;16.194;2023-05-09T04:25:01;100964.76;;;30.36;17.87
35952;BME280;22035;51.406;16.194;2023-05-09T04:27:27;100960.71;;;30.57;17.66
35952;BME280;22035;51.406;16.194;2023-05-09T04:29:53;100961.01;;;30.47;17.73
35952;BME280;22035;51.406;16.194;2023-05-09T04:32:18;100958.26;;;30.54;17.67
35952;BME280;22035;51.406;16.194;2023-05-09T04:34:44;100957.00;;;30.62;17.66
35952;BME280;22035;51.406;16.194;2023-05-09T04:37:10;100958.57;;;30.58;17.66
35952;BME280;22035;51.406;16.194;2023-05-09T04:39:35;100960.24;;;30.50;17.70
35952;BME280;22035;51.406;16.194;2023-05-09T04:42:01;100963.85;;;30.49;17.72
35952;BME280;22035;51.406;16.194;2023-05-09T04:44:26;100960.61;;;30.61;17.61
35952;BME280;22035;51.406;16.194;2023-05-09T04:46:52;100957.75;;;30.62;17.68
35952;BME280;22035;51.406;16.194;2023-05-09T04:49:18;100959.06;;;30.57;17.65
35952;BME280;22035;51.406;16.194;2023-05-09T04:51:44;100962.94;;;30.73;17.57
35952;BME280;22035;51.406;16.194;2023-05-09T04:54:09;100963.75;;;30.72;17.61
35952;BME280;22035;51.406;16.194;2023-05-09T04:56:35;100963.11;;;30.77;17.57
35952;BME280;22035;51.406;16.194;2023-05-09T04:59:01;100962.79;;;31.02;17.32
35952;BME280;22035;51.406;16.194;2023-05-09T05:01:26;100960.19;;;30.85;17.46
35952;BME280;22035;51.406;16.194;2023-05-09T05:03:52;100959.85;;;30.90;17.54
35952;BME280;22035;51.406;16.194;2023-05-09T05:06:17;100957.92;;;30.80;17.58
35952;BME280;22035;51.406;16.194;2023-05-09T05:08:43;100958.89;;;30.92;17.43
35952;BME280;22035;51.406;16.194;2023-05-09T05:11:09;100956.08;;;30.82;17.55
35952;BME280;22035;51.406;16.194;2023-05-09T05:13:34;100957.96;;;30.83;17.56
35952;BME280;22035;51.406;16.194;2023-05-09T05:16:00;100954.85;;;30.84;17.51
35952;BME280;22035;51.406;16.194;2023-05-09T05:18:26;100955.54;;;30.77;17.56
35952;BME280;22035;51.406;16.194;2023-05-09T05:20:51;100951.83;;;30.85;17.53
35952;BME280;22035;51.406;16.194;2023-05-09T05:23:17;100947.89;;;31.12;17.29
35952;BME280;22035;51.406;16.194;2023-05-09T05:25:43;100948.84;;;31.09;17.37
35952;BME280;22035;51.406;16.194;2023-05-09T05:28:08;100945.86;;;31.12;17.32
35952;BME280;22035;51.406;16.194;2023-05-09T05:30:34;100949.23;;;31.06;17.41
35952;BME280;22035;51.406;16.194;2023-05-09T05:33:00;100944.62;;;31.02;17.40
35952;BME280;22035;51.406;16.194;2023-05-09T05:35:25;100945.59;;;31.20;17.26
35952;BME280;22035;51.406;16.194;2023-05-09T05:37:51;100941.44;;;31.08;17.34
35952;BME280;22035;51.406;16.194;2023-05-09T05:40:17;100938.27;;;31.14;17.28
35952;BME280;22035;51.406;16.194;2023-05-09T05:42:42;100941.90;;;31.13;17.29
35952;BME280;22035;51.406;16.194;2023-05-09T05:45:09;100939.09;;;31.19;17.22
35952;BME280;22035;51.406;16.194;2023-05-09T05:47:35;100944.17;;;31.22;17.25
35952;BME280;22035;51.406;16.194;2023-05-09T05:50:04;100945.06;;;31.19;17.22
35952;BME280;22035;51.406;16.194;2023-05-09T05:52:30;100951.70;;;31.27;17.13
35952;BME280;22035;51.406;16.194;2023-05-09T05:54:55;100947.93;;;31.41;17.11
35952;BME280;22035;51.406;16.194;2023-05-09T05:57:21;100945.19;;;31.40;17.05
35952;BME280;22035;51.406;16.194;2023-05-09T05:59:47;100947.62;;;31.44;17.12
35952;BME280;22035;51.406;16.194;2023-05-09T06:02:13;100946.36;;;31.45;17.04
35952;BME280;22035;51.406;16.194;2023-05-09T06:04:38;100939.63;;;31.29;17.14
35952;BME280;22035;51.406;16.194;2023-05-09T06:07:05;100939.03;;;31.45;17.09
35952;BME280;22035;51.406;16.194;2023-05-09T06:09:31;100936.95;;;31.37;17.07
35952;BME280;22035;51.406;16.194;2023-05-09T06:11:56;100940.84;;;31.32;17.11
35952;BME280;22035;51.406;16.194;2023-05-09T06:14:22;100939.52;;;31.41;17.04
35952;BME280;22035;51.406;16.194;2023-05-09T06:16:48;100937.98;;;31.46;16.96
35952;BME280;22035;51.406;16.194;2023-05-09T06:19:13;100933.92;;;31.36;17.14
35952;BME280;22035;51.406;16.194;2023-05-09T06:21:39;100935.55;;;31.34;17.05
35952;BME280;22035;51.406;16.194;2023-05-09T06:24:05;100932.22;;;31.45;16.95
35952;BME280;22035;51.406;16.194;2023-05-09T06:26:31;100931.55;;;31.44;16.96
35952;BME280;22035;51.406;16.194;2023-05-09T06:28:57;100928.76;;;31.54;16.95
35952;BME280;22035;51.406;16.194;2023-05-09T06:31:23;100926.54;;;31.48;16.98
35952;BME280;22035;51.406;16.194;2023-05-09T06:33:48;100928.04;;;31.27;17.08
35952;BME280;22035;51.406;16.194;2023-05-09T06:36:14;100929.37;;;31.59;16.87
35952;BME280;22035;51.406;16.194;2023-05-09T06:38:39;100928.74;;;31.33;17.03
35952;BME280;22035;51.406;16.194;2023-05-09T06:41:05;100928.89;;;31.48;16.94
35952;BME280;22035;51.406;16.194;2023-05-09T06:43:31;100927.99;;;31.44;16.93
35952;BME280;22035;51.406;16.194;2023-05-09T06:45:56;100923.55;;;31.48;16.91
35952;BME280;22035;51.406;16.194;2023-05-09T06:48:22;100924.04;;;31.21;17.13
35952;BME280;22035;51.406;16.194;2023-05-09T06:50:48;100918.40;;;31.43;16.94
35952;BME280;22035;51.406;16.194;2023-05-09T06:53:13;100923.14;;;31.41;16.95
35952;BME280;22035;51.406;16.194;2023-05-09T06:55:39;100919.55;;;31.27;17.14
35952;BME280;22035;51.406;16.194;2023-05-09T06:58:05;100907.43;;;31.27;17.11
35952;BME280;22035;51.406;16.194;2023-05-09T07:00:30;100911.00;;;31.37;17.02
35952;BME280;22035;51.406;16.194;2023-05-09T07:02:56;100907.96;;;31.42;16.98
35952;BME280;22035;51.406;16.194;2023-05-09T07:05:22;100905.60;;;31.55;16.87
35952;BME280;22035;51.406;16.194;2023-05-09T07:07:47;100903.17;;;31.60;16.86
35952;BME280;22035;51.406;16.194;2023-05-09T07:10:13;100890.13;;;31.60;16.88
35952;BME280;22035;51.406;16.194;2023-05-09T07:12:39;100895.51;;;31.61;16.86
35952;BME280;22035;51.406;16.194;2023-05-09T07:15:06;100880.33;;;31.59;16.84
35952;BME280;22035;51.406;16.194;2023-05-09T07:17:32;100889.56;;;31.64;16.82
35952;BME280;22035;51.406;16.194;2023-05-09T07:19:57;100886.76;;;31.57;16.89
35952;BME280;22035;51.406;16.194;2023-05-09T07:22:23;100887.67;;;31.58;16.85
35952;BME280;22035;51.406;16.194;2023-05-09T07:24:49;100888.47;;;31.67;16.79
35952;BME280;22035;51.406;16.194;2023-05-09T07:27:14;100882.75;;;31.60;16.85
35952;BME280;22035;51.406;16.194;2023-05-09T07:29:40;100884.10;;;31.56;16.89
35952;BME280;22035;51.406;16.194;2023-05-09T07:32:06;100882.30;;;31.61;16.82
35952;BME280;22035;51.406;16.194;2023-05-09T07:34:31;100877.79;;;31.62;16.84
35952;BME280;22035;51.406;16.194;2023-05-09T07:36:57;100881.65;;;31.61;16.82
35952;BME280;22035;51.406;16.194;2023-05-09T07:39:23;100870.00;;;31.49;16.96
35952;BME280;22035;51.406;16.194;2023-05-09T07:41:48;100870.85;;;31.61;16.85
35952;BME280;22035;51.406;16.194;2023-05-09T07:44:14;100868.63;;;31.61;16.82
35952;BME280;22035;51.406;16.194;2023-05-09T07:46:40;100866.09;;;31.56;16.86
35952;BME280;22035;51.406;16.194;2023-05-09T07:49:05;100855.62;;;31.57;16.87
35952;BME280;22035;51.406;16.194;2023-05-09T07:51:31;100858.70;;;31.49;16.93
35952;BME280;22035;51.406;16.194;2023-05-09T07:53:56;100841.33;;;31.51;16.94
35952;BME280;22035;51.406;16.194;2023-05-09T07:56:22;100847.11;;;31.30;17.09
35952;BME280;22035;51.406;16.194;2023-05-09T07:58:48;100846.94;;;31.29;17.13
35952;BME280;22035;51.406;16.194;2023-05-09T08:01:14;100832.98;;;31.37;17.05
35952;BME280;22035;51.406;16.194;2023-05-09T08:03:39;100829.99;;;31.42;17.03
35952;BME280;22035;51.406;16.194;2023-05-09T08:06:05;100836.22;;;31.35;17.09
35952;BME280;22035;51.406;16.194;2023-05-09T08:08:31;100829.34;;;31.29;17.13
35952;BME280;22035;51.406;16.194;2023-05-09T08:10:57;100823.21;;;31.24;17.18
35952;BME280;22035;51.406;16.194;2023-05-09T08:13:22;100827.37;;;31.24;17.17
35952;BME280;22035;51.406;16.194;2023-05-09T08:15:50;100827.60;;;31.24;17.16
35952;BME280;22035;51.406;16.194;2023-05-09T08:18:16;100827.75;;;31.28;17.12
35952;BME280;22035;51.406;16.194;2023-05-09T08:20:41;100824.85;;;31.27;17.15
35952;BME280;22035;51.406;16.194;2023-05-09T08:23:07;100822.47;;;31.26;17.16
35952;BME280;22035;51.406;16.194;2023-05-09T08:25:33;100817.03;;;31.27;17.15
35952;BME280;22035;51.406;16.194;2023-05-09T08:27:58;100813.90;;;31.11;17.28
35952;BME280;22035;51.406;16.194;2023-05-09T08:30:24;100805.97;;;31.27;17.13
35952;BME280;22035;51.406;16.194;2023-05-09T08:32:50;100798.93;;;31.19;17.20
35952;BME280;22035;51.406;16.194;2023-05-09T08:35:15;100794.33;;;31.12;17.26
35952;BME280;22035;51.406;16.194;2023-05-09T08:37:41;100795.47;;;31.07;17.31
35952;BME280;22035;51.406;16.194;2023-05-09T08:40:07;100787.90;;;31.08;17.31
35952;BME280;22035;51.406;16.194;2023-05-09T08:42:35;100788.31;;;31.08;17.30
35952;BME280;22035;51.406;16.194;2023-05-09T08:45:05;100779.47;;;31.08;17.31
35952;BME280;22035;51.406;16.194;2023-05-09T08:47:33;100785.08;;;31.04;17.34
35952;BME280;22035;51.406;16.194;2023-05-09T08:50:00;100777.86;;;31.02;17.36
35952;BME280;22035;51.406;16.194;2023-05-09T08:52:26;100779.40;;;31.11;17.27
35952;BME280;22035;51.406;16.194;2023-05-09T08:54:52;100771.26;;;31.05;17.33
35952;BME280;22035;51.406;16.194;2023-05-09T08:57:18;100765.69;;;31.06;17.31
35952;BME280;22035;51.406;16.194;2023-05-09T08:59:43;100769.27;;;31.07;17.30
35952;BME280;22035;51.406;16.194;2023-05-09T09:02:10;100759.20;;;30.98;17.39
35952;BME280;22035;51.406;16.194;2023-05-09T09:04:36;100759.92;;;31.05;17.31
35952;BME280;22035;51.406;16.194;2023-05-09T09:07:03;100760.06;;;30.95;17.41
35952;BME280;22035;51.406;16.194;2023-05-09T09:09:29;100760.50;;;30.96;17.41
35952;BME280;22035;51.406;16.194;2023-05-09T09:11:56;100764.69;;;31.00;17.35
35952;BME280;22035;51.406;16.194;2023-05-09T09:14:23;100759.95;;;30.99;17.37
35952;BME280;22035;51.406;16.194;2023-05-09T09:16:50;100756.84;;;31.00;17.35
35952;BME280;22035;51.406;16.194;2023-05-09T09:19:17;100758.00;;;30.89;17.46
35952;BME280;22035;51.406;16.194;2023-05-09T09:21:45;100748.54;;;30.94;17.44
35952;BME280;22035;51.406;16.194;2023-05-09T09:24:12;100757.24;;;30.98;17.39
35952;BME280;22035;51.406;16.194;2023-05-09T09:26:44;100743.37;;;30.97;17.39
35952;BME280;22035;51.406;16.194;2023-05-09T09:29:10;100745.18;;;30.98;17.39
35952;BME280;22035;51.406;16.194;2023-05-09T09:31:36;100741.18;;;30.91;17.46
35952;BME280;22035;51.406;16.194;2023-05-09T09:34:02;100736.43;;;30.89;17.49
35952;BME280;22035;51.406;16.194;2023-05-09T09:36:29;100736.22;;;30.95;17.44
35952;BME280;22035;51.406;16.194;2023-05-09T09:38:57;100732.83;;;30.94;17.42
35952;BME280;22035;51.406;16.194;2023-05-09T09:41:29;100727.28;;;30.88;17.51
35952;BME280;22035;51.406;16.194;2023-05-09T09:43:55;100718.24;;;30.91;17.49
35952;BME280;22035;51.406;16.194;2023-05-09T09:46:20;100717.83;;;30.89;17.47
35952;BME280;22035;51.406;16.194;2023-05-09T09:48:46;100727.15;;;30.97;17.49
35952;BME280;22035;51.406;16.194;2023-05-09T09:51:12;100715.19;;;30.99;17.40
35952;BME280;22035;51.406;16.194;2023-05-09T09:53:38;100719.42;;;30.95;17.43
35952;BME280;22035;51.406;16.194;2023-05-09T09:56:04;100715.73;;;30.90;17.48
35952;BME280;22035;51.406;16.194;2023-05-09T09:58:30;100714.05;;;30.93;17.44
35952;BME280;22035;51.406;16.194;2023-05-09T10:01:03;100707.50;;;30.85;17.51
35952;BME280;22035;51.406;16.194;2023-05-09T10:03:34;100718.50;;;30.89;17.49
35952;BME280;22035;51.406;16.194;2023-05-09T10:06:00;100716.07;;;30.97;17.41
35952;BME280;22035;51.406;16.194;2023-05-09T10:08:26;100706.39;;;30.86;17.51
35952;BME280;22035;51.406;16.194;2023-05-09T10:10:52;100711.93;;;30.93;17.45
35952;BME280;22035;51.406;16.194;2023-05-09T10:13:18;100696.41;;;30.87;17.50
35952;BME280;22035;51.406;16.194;2023-05-09T10:15:45;100698.81;;;30.94;17.42
35952;BME280;22035;51.406;16.194;2023-05-09T10:18:11;100688.54;;;30.86;17.51
35952;BME280;22035;51.406;16.194;2023-05-09T10:20:37;100687.72;;;30.87;17.51
35952;BME280;22035;51.406;16.194;2023-05-09T10:23:05;100689.39;;;30.95;17.43
35952;BME280;22035;51.406;16.194;2023-05-09T10:25:37;100687.74;;;30.92;17.46
35952;BME280;22035;51.406;16.194;2023-05-09T10:28:04;100686.75;;;30.94;17.44
35952;BME280;22035;51.406;16.194;2023-05-09T10:30:35;100676.38;;;30.98;17.41
35952;BME280;22035;51.406;16.194;2023-05-09T10:33:07;100680.58;;;31.02;17.38
35952;BME280;22035;51.406;16.194;2023-05-09T10:35:38;100677.10;;;31.01;17.38
35952;BME280;22035;51.406;16.194;2023-05-09T10:38:05;100663.87;;;31.08;17.34
35952;BME280;22035;51.406;16.194;2023-05-09T10:40:33;100670.49;;;30.97;17.42
35952;BME280;22035;51.406;16.194;2023-05-09T10:42:59;100659.42;;;30.92;17.47
35952;BME280;22035;51.406;16.194;2023-05-09T10:45:25;100661.76;;;31.01;17.40
35952;BME280;22035;51.406;16.194;2023-05-09T10:47:52;100648.22;;;30.96;17.44
35952;BME280;22035;51.406;16.194;2023-05-09T10:50:19;100657.19;;;30.90;17.50
35952;BME280;22035;51.406;16.194;2023-05-09T10:53:16;100664.17;;;30.88;17.52
35952;BME280;22035;51.406;16.194;2023-05-09T10:55:51;100652.09;;;30.88;17.55
35952;BME280;22035;51.406;16.194;2023-05-09T10:58:20;100650.71;;;30.91;17.50
35952;BME280;22035;51.406;16.194;2023-05-09T11:00:46;100640.53;;;30.81;17.59
35952;BME280;22035;51.406;16.194;2023-05-09T11:03:12;100648.65;;;30.81;17.59
35952;BME280;22035;51.406;16.194;2023-05-09T11:05:38;100643.86;;;30.90;17.50
35952;BME280;22035;51.406;16.194;2023-05-09T11:08:21;100631.48;;;30.91;17.50
35952;BME280;22035;51.406;16.194;2023-05-09T11:10:47;100631.80;;;30.93;17.48
35952;BME280;22035;51.406;16.194;2023-05-09T11:13:17;100622.06;;;30.86;17.53
35952;BME280;22035;51.406;16.194;2023-05-09T11:15:50;100626.41;;;30.85;17.56
35952;BME280;22035;51.406;16.194;2023-05-09T11:18:15;100613.80;;;30.90;17.50
35952;BME280;22035;51.406;16.194;2023-05-09T11:20:42;100609.57;;;30.86;17.56
35952;BME280;22035;51.406;16.194;2023-05-09T11:23:08;100607.16;;;30.83;17.56
35952;BME280;22035;51.406;16.194;2023-05-09T11:25:34;100594.09;;;30.86;17.56
35952;BME280;22035;51.406;16.194;2023-05-09T11:28:00;100587.12;;;30.88;17.54
35952;BME280;22035;51.406;16.194;2023-05-09T11:30:35;100578.97;;;30.81;17.60
35952;BME280;22035;51.406;16.194;2023-05-09T11:33:03;100584.03;;;30.84;17.58
35952;BME280;22035;51.406;16.194;2023-05-09T11:35:28;100583.90;;;30.86;17.56
35952;BME280;22035;51.406;16.194;2023-05-09T11:37:59;100573.90;;;30.96;17.47
35952;BME280;22035;51.406;16.194;2023-05-09T11:40:26;100569.85;;;30.88;17.54
35952;BME280;22035;51.406;16.194;2023-05-09T11:42:54;100568.43;;;30.93;17.50
35952;BME280;22035;51.406;16.194;2023-05-09T11:45:21;100566.55;;;30.80;17.61
35952;BME280;22035;51.406;16.194;2023-05-09T11:47:48;100554.24;;;30.86;17.56
35952;BME280;22035;51.406;16.194;2023-05-09T11:50:15;100558.25;;;30.87;17.56
35952;BME280;22035;51.406;16.194;2023-05-09T11:52:42;100555.69;;;30.92;17.51
35952;BME280;22035;51.406;16.194;2023-05-09T11:55:09;100558.71;;;30.88;17.56
35952;BME280;22035;51.406;16.194;2023-05-09T11:57:38;100556.64;;;30.92;17.53
35952;BME280;22035;51.406;16.194;2023-05-09T12:00:05;100556.21;;;30.94;17.50
35952;BME280;22035;51.406;16.194;2023-05-09T12:02:31;100551.61;;;30.96;17.49
35952;BME280;22035;51.406;16.194;2023-05-09T12:05:06;100548.85;;;30.78;17.63
35952;BME280;22035;51.406;16.194;2023-05-09T12:07:31;100557.22;;;30.92;17.53
35952;BME280;22035;51.406;16.194;2023-05-09T12:09:58;100555.55;;;30.79;17.65
35952;BME280;22035;51.406;16.194;2023-05-09T12:12:24;100545.81;;;30.94;17.52
35952;BME280;22035;51.406;16.194;2023-05-09T12:14:49;100539.11;;;31.01;17.48
35952;BME280;22035;51.406;16.194;2023-05-09T12:17:15;100527.14;;;30.84;17.63
35952;BME280;22035;51.406;16.194;2023-05-09T12:19:41;100531.86;;;30.85;17.61
35952;BME280;22035;51.406;16.194;2023-05-09T12:22:06;100528.76;;;30.83;17.64
35952;BME280;22035;51.406;16.194;2023-05-09T12:24:34;100525.08;;;30.92;17.55
35952;BME280;22035;51.406;16.194;2023-05-09T12:27:00;100522.31;;;30.96;17.51
35952;BME280;22035;51.406;16.194;2023-05-09T12:29:26;100518.41;;;30.96;17.53
35952;BME280;22035;51.406;16.194;2023-05-09T12:31:53;100517.45;;;30.97;17.51
35952;BME280;22035;51.406;16.194;2023-05-09T12:34:19;100504.41;;;30.89;17.58
35952;BME280;22035;51.406;16.194;2023-05-09T12:36:46;100511.45;;;31.01;17.49